EJU68QN LIMC-LFPO
Flight info
| Callsign | EJU68QN |
|---|---|
| Flight time | N/A |
| Altitude | 32000 |
| Route | AOSTA DCT ORSUD DCT MOLUS DCT UNKIR DCT DJL |
| Aircraft | A320/M-SDE2E3FGHIJ1RWXYZ/LB1 |
Departure
| Time | 2026-04-30 22:55 |
|---|---|
| Airport | Milan Malpensa International Airport (LIMC) |
Arrival
| Time | N/A |
|---|---|
| Airport | Paris-Orly Airport (LFPO) |
| Time | Latitude | Longitude | Altitude | Speed | Heading |
|---|---|---|---|---|---|
| 2026-04-30 22:19 | 45.64595 | 8.72195 | 771 ft | 0 kts | 84° |
| 2026-04-30 22:37 | 45.64594 | 8.72178 | 771 ft | 2 kts | 84° |
| 2026-04-30 22:38 | 45.64591 | 8.72130 | 771 ft | 2 kts | 101° |
| 2026-04-30 22:38 | 45.64607 | 8.72088 | 772 ft | 3 kts | 158° |
| 2026-04-30 22:39 | 45.64612 | 8.72085 | 772 ft | 0 kts | 170° |
| 2026-04-30 22:42 | 45.64549 | 8.72102 | 771 ft | 12 kts | 168° |
| 2026-04-30 22:43 | 45.64407 | 8.72231 | 767 ft | 15 kts | 45° |
| 2026-04-30 22:43 | 45.64471 | 8.72594 | 762 ft | 23 kts | 91° |
| 2026-04-30 22:44 | 45.64212 | 8.72703 | 756 ft | 24 kts | 176° |
| 2026-04-30 22:45 | 45.63866 | 8.72588 | 752 ft | 17 kts | 159° |
| 2026-04-30 22:45 | 45.63557 | 8.72673 | 743 ft | 27 kts | 169° |
| 2026-04-30 22:46 | 45.63174 | 8.72776 | 738 ft | 31 kts | 167° |
| 2026-04-30 22:47 | 45.62426 | 8.72985 | 726 ft | 28 kts | 169° |
| 2026-04-30 22:47 | 45.62057 | 8.73089 | 715 ft | 23 kts | 169° |
| 2026-04-30 22:48 | 45.61727 | 8.73233 | 701 ft | 21 kts | 116° |
| 2026-04-30 22:49 | 45.61587 | 8.73612 | 702 ft | 0 kts | 89° |
| 2026-04-30 22:53 | 45.61587 | 8.73634 | 699 ft | 9 kts | 89° |
| 2026-04-30 22:53 | 45.61628 | 8.73721 | 701 ft | 12 kts | 16° |
| 2026-04-30 22:54 | 45.62187 | 8.73581 | 716 ft | 104 kts | 351° |
| 2026-04-30 22:55 | 45.65228 | 8.73215 | 2157 ft | 158 kts | 41° |
| 2026-04-30 22:55 | 45.66567 | 8.75541 | 3528 ft | 153 kts | 54° |
| 2026-04-30 22:56 | 45.68196 | 8.77771 | 4494 ft | 177 kts | 49° |
| 2026-04-30 22:56 | 45.71244 | 8.81817 | 5811 ft | 216 kts | 45° |
| 2026-04-30 22:57 | 45.72764 | 8.85575 | 6756 ft | 237 kts | 82° |
| 2026-04-30 22:57 | 45.72015 | 8.90148 | 8332 ft | 247 kts | 125° |
| 2026-04-30 22:58 | 45.69098 | 8.92711 | 9900 ft | 259 kts | 173° |
| 2026-04-30 22:59 | 45.64556 | 8.89313 | 12123 ft | 262 kts | 248° |
| 2026-04-30 22:59 | 45.64093 | 8.81610 | 14394 ft | 265 kts | 272° |